createdAt,value
2022-12-31T00:00:58.614Z,101100.03
2022-12-31T00:04:07.355Z,101098.59
2022-12-31T00:07:15.272Z,101104.44
2022-12-31T00:10:23.704Z,101105.94
2022-12-31T00:13:30.398Z,101115.25
2022-12-31T00:16:39.626Z,101117.34
2022-12-31T00:19:46.283Z,101125.31
2022-12-31T00:22:52.938Z,101113.16
2022-12-31T00:26:02.359Z,101121.22
2022-12-31T00:29:11.769Z,101123.44
2022-12-31T00:32:17.963Z,101131.19
2022-12-31T00:35:23.915Z,101130.69
2022-12-31T00:38:28.962Z,101138.66
2022-12-31T00:41:35.353Z,101129.63
2022-12-31T00:44:43.644Z,101133.41
2022-12-31T00:47:50.975Z,101146.66
2022-12-31T00:50:56.320Z,101133.72
2022-12-31T00:54:00.900Z,101153.75
2022-12-31T00:57:05.623Z,101156.31
2022-12-31T01:00:12.410Z,101156.50
2022-12-31T01:03:17.118Z,101154.06
2022-12-31T01:06:24.907Z,101144.09
2022-12-31T01:09:28.643Z,101154.41
2022-12-31T01:12:32.813Z,101154.50
2022-12-31T01:15:38.587Z,101155.03
2022-12-31T01:18:45.161Z,101159.75
2022-12-31T01:21:50.791Z,101165.00
2022-12-31T01:24:54.980Z,101158.09
2022-12-31T01:27:58.971Z,101150.09
2022-12-31T01:31:08.746Z,101157.75
2022-12-31T01:34:14.784Z,101163.63
2022-12-31T01:37:21.687Z,101158.72
2022-12-31T01:40:26.194Z,101159.81
2022-12-31T01:43:50.392Z,101161.91
2022-12-31T01:46:56.798Z,101167.91
2022-12-31T01:50:05.068Z,101168.22
2022-12-31T01:53:11.734Z,101169.50
2022-12-31T01:56:22.579Z,101161.50
2022-12-31T01:59:31.670Z,101155.03
2022-12-31T02:02:41.322Z,101167.50
2022-12-31T02:05:56.796Z,101159.25
2022-12-31T02:09:04.873Z,101170.31
2022-12-31T02:12:12.620Z,101170.84
2022-12-31T02:15:23.231Z,101162.97
2022-12-31T02:18:32.829Z,101167.06
2022-12-31T02:21:43.244Z,101165.19
2022-12-31T02:24:51.122Z,101173.06
2022-12-31T02:28:15.587Z,101160.81
2022-12-31T02:31:45.498Z,101158.25
2022-12-31T02:35:01.830Z,101158.59
2022-12-31T02:38:17.092Z,101177.59
2022-12-31T02:41:43.299Z,101183.78
2022-12-31T02:44:51.166Z,101179.56
2022-12-31T02:48:02.258Z,101174.12
2022-12-31T02:51:28.663Z,101176.09
2022-12-31T02:54:40.402Z,101176.00
2022-12-31T02:57:52.742Z,101177.81
2022-12-31T03:01:18.599Z,101165.81
2022-12-31T03:04:38.519Z,101155.44
2022-12-31T03:07:47.500Z,101145.78
2022-12-31T03:10:58.696Z,101134.97
2022-12-31T03:14:05.695Z,101152.31
2022-12-31T03:17:12.990Z,101162.16
2022-12-31T03:20:37.609Z,101148.13
2022-12-31T03:23:51.350Z,101134.12
2022-12-31T03:26:58.803Z,101152.09
2022-12-31T03:30:07.813Z,101168.66
2022-12-31T03:33:16.748Z,101141.63
2022-12-31T03:36:28.325Z,101145.81
2022-12-31T03:39:35.518Z,101157.53
2022-12-31T03:42:43.471Z,101154.31
2022-12-31T03:45:54.396Z,101139.59
2022-12-31T03:49:03.965Z,101135.19
2022-12-31T03:52:09.875Z,101135.06
2022-12-31T03:55:17.618Z,101136.56
2022-12-31T03:58:24.443Z,101152.91
2022-12-31T04:01:32.738Z,101144.09
2022-12-31T04:04:42.928Z,101152.63
2022-12-31T04:07:53.250Z,101157.84
2022-12-31T04:11:01.474Z,101151.38
2022-12-31T04:14:11.384Z,101147.16
2022-12-31T04:17:21.376Z,101153.56
2022-12-31T04:20:31.398Z,101154.41
2022-12-31T04:23:37.452Z,101149.37
2022-12-31T04:26:45.650Z,101148.63
2022-12-31T04:29:53.930Z,101160.88
2022-12-31T04:32:59.372Z,101174.03
2022-12-31T04:36:07.303Z,101167.84
2022-12-31T04:39:14.554Z,101172.87
2022-12-31T04:42:20.699Z,101174.12
2022-12-31T04:45:27.475Z,101187.97
2022-12-31T04:48:36.842Z,101190.91
2022-12-31T04:51:44.064Z,101199.97
2022-12-31T04:54:52.945Z,101195.97
2022-12-31T04:57:58.731Z,101186.63
2022-12-31T05:01:10.179Z,101203.00
2022-12-31T05:04:17.428Z,101216.22
2022-12-31T05:07:24.775Z,101219.97
2022-12-31T05:10:32.662Z,101218.09
2022-12-31T05:13:39.944Z,101221.22
2022-12-31T05:16:47.071Z,101237.84
2022-12-31T05:19:55.314Z,101233.00
2022-12-31T05:23:01.792Z,101232.56
2022-12-31T05:26:11.788Z,101212.47
2022-12-31T05:29:21.386Z,101233.50
2022-12-31T05:32:28.783Z,101228.38
2022-12-31T05:35:37.050Z,101234.88
2022-12-31T05:38:44.747Z,101235.84
2022-12-31T05:41:53.773Z,101247.91
2022-12-31T05:45:02.453Z,101251.16
2022-12-31T05:48:08.008Z,101251.28
2022-12-31T05:51:14.937Z,101255.91
2022-12-31T05:54:23.664Z,101258.31
2022-12-31T05:57:31.638Z,101254.94
2022-12-31T06:00:37.671Z,101252.84
2022-12-31T06:03:46.159Z,101255.16
2022-12-31T06:06:53.264Z,101255.69
2022-12-31T06:09:59.229Z,101254.53
2022-12-31T06:13:05.316Z,101269.97
2022-12-31T06:16:15.793Z,101272.16
2022-12-31T06:19:22.118Z,101261.13
2022-12-31T06:22:29.459Z,101253.38
2022-12-31T06:25:36.368Z,101256.09
2022-12-31T06:28:47.478Z,101252.16
2022-12-31T06:31:53.630Z,101263.31
2022-12-31T06:35:00.351Z,101262.19
2022-12-31T06:38:09.583Z,101256.75
2022-12-31T06:41:17.139Z,101260.72
2022-12-31T06:44:23.720Z,101265.16
2022-12-31T06:47:30.552Z,101280.38
2022-12-31T06:50:38.852Z,101274.91
2022-12-31T06:53:46.193Z,101285.56
2022-12-31T06:56:53.401Z,101282.22
2022-12-31T07:00:01.648Z,101280.56
2022-12-31T07:03:16.357Z,101283.50
2022-12-31T07:06:46.224Z,101288.34
2022-12-31T07:09:55.390Z,101288.34
2022-12-31T07:13:12.413Z,101293.81
2022-12-31T07:16:23.118Z,101296.66
2022-12-31T07:19:41.517Z,101302.84
2022-12-31T07:22:48.066Z,101306.78
2022-12-31T07:25:57.893Z,101312.09
2022-12-31T07:29:13.449Z,101308.72
2022-12-31T07:32:27.983Z,101305.78
2022-12-31T07:35:52.519Z,101291.72
2022-12-31T07:39:13.513Z,101296.34
2022-12-31T07:42:29.372Z,101299.59
2022-12-31T07:45:50.389Z,101308.41
2022-12-31T07:48:56.797Z,101318.34
2022-12-31T07:52:03.240Z,101323.75
2022-12-31T07:55:10.323Z,101326.94
2022-12-31T07:58:24.128Z,101323.28
2022-12-31T08:01:31.984Z,101328.41
2022-12-31T08:04:43.090Z,101326.31
2022-12-31T08:07:52.411Z,101328.84
2022-12-31T08:11:08.139Z,101322.88
2022-12-31T08:14:16.377Z,101340.84
2022-12-31T08:17:23.211Z,101342.41
2022-12-31T08:20:31.991Z,101345.94
2022-12-31T08:23:51.347Z,101339.00
2022-12-31T08:27:18.440Z,101356.84
2022-12-31T08:30:26.657Z,101373.44
2022-12-31T08:33:52.312Z,101368.00
2022-12-31T08:37:03.596Z,101388.81
2022-12-31T08:40:17.059Z,101388.09
2022-12-31T08:43:26.450Z,101384.53
2022-12-31T08:46:47.729Z,101391.56
2022-12-31T08:49:53.704Z,101397.44
2022-12-31T08:53:01.330Z,101403.84
2022-12-31T08:56:37.429Z,101403.78
2022-12-31T08:59:53.956Z,101408.03
2022-12-31T09:03:08.718Z,101404.34
2022-12-31T09:06:16.285Z,101386.37
2022-12-31T09:09:47.450Z,101407.63
2022-12-31T09:13:05.994Z,101401.75
2022-12-31T09:16:32.705Z,101402.59
2022-12-31T09:19:38.703Z,101389.09
2022-12-31T09:22:45.234Z,101391.72
2022-12-31T09:26:07.495Z,101386.63
2022-12-31T09:29:23.586Z,101382.87
2022-12-31T09:32:28.976Z,101382.28
2022-12-31T09:35:37.182Z,101386.19
2022-12-31T09:38:57.545Z,101359.63
2022-12-31T09:42:20.190Z,101364.91
2022-12-31T09:45:35.724Z,101374.59
2022-12-31T09:48:51.766Z,101343.00
2022-12-31T09:51:57.072Z,101337.12
2022-12-31T09:55:23.259Z,101337.25
2022-12-31T09:58:34.247Z,101335.22
2022-12-31T10:01:48.266Z,101331.31
2022-12-31T10:05:03.433Z,101331.25
2022-12-31T10:08:16.270Z,101321.16
2022-12-31T10:11:40.988Z,101323.34
2022-12-31T10:15:06.840Z,101330.41
2022-12-31T10:18:34.482Z,101325.16
2022-12-31T10:21:43.484Z,101334.59
2022-12-31T10:25:09.174Z,101335.53
2022-12-31T10:28:19.884Z,101323.09
2022-12-31T10:31:32.312Z,101327.41
2022-12-31T10:34:53.712Z,101333.28
2022-12-31T10:38:03.455Z,101328.47
2022-12-31T10:41:08.247Z,101319.91
2022-12-31T10:44:20.839Z,101329.72
2022-12-31T10:47:44.124Z,101340.03
2022-12-31T10:50:52.575Z,101334.28
2022-12-31T10:54:11.231Z,101327.41
2022-12-31T10:57:18.513Z,101338.56
2022-12-31T11:00:24.512Z,101323.09
2022-12-31T11:03:43.026Z,101309.59
2022-12-31T11:07:09.872Z,101321.09
2022-12-31T11:10:20.534Z,101318.41
2022-12-31T11:13:34.229Z,101323.12
2022-12-31T11:16:38.617Z,101320.84
2022-12-31T11:19:59.624Z,101310.88
2022-12-31T11:23:32.799Z,101301.44
2022-12-31T11:26:57.587Z,101309.69
2022-12-31T11:30:08.569Z,101299.03
2022-12-31T11:33:27.584Z,101317.00
2022-12-31T11:36:39.392Z,101315.78
2022-12-31T11:40:04.692Z,101320.91
2022-12-31T11:43:17.350Z,101311.09
2022-12-31T11:46:36.694Z,101303.88
2022-12-31T11:49:56.767Z,101306.41
2022-12-31T11:53:03.741Z,101301.78
2022-12-31T11:56:20.845Z,101282.91
2022-12-31T11:59:29.380Z,101296.84
2022-12-31T12:02:39.372Z,101301.41
2022-12-31T12:05:47.595Z,101310.06
2022-12-31T12:08:54.460Z,101314.59
2022-12-31T12:12:05.737Z,101321.31
2022-12-31T12:15:18.005Z,101315.66
2022-12-31T12:18:29.865Z,101332.00
2022-12-31T12:21:37.322Z,101331.41
2022-12-31T12:24:54.047Z,101334.06
2022-12-31T12:28:04.297Z,101324.97
2022-12-31T12:31:18.677Z,101329.91
2022-12-31T12:34:28.991Z,101326.97
2022-12-31T12:37:37.360Z,101327.09
2022-12-31T12:40:54.605Z,101315.31
2022-12-31T12:44:06.509Z,101307.81
2022-12-31T12:47:19.678Z,101313.56
2022-12-31T12:50:40.890Z,101315.78
2022-12-31T12:53:54.331Z,101317.50
2022-12-31T12:57:20.622Z,101303.28
2022-12-31T13:00:34.483Z,101308.03
2022-12-31T13:04:23.372Z,101311.91
2022-12-31T13:07:32.697Z,101303.25
2022-12-31T13:10:44.118Z,101304.63
2022-12-31T13:13:53.195Z,101302.13
2022-12-31T13:17:19.556Z,101291.19
2022-12-31T13:20:37.076Z,101297.16
2022-12-31T13:23:50.317Z,101310.63
2022-12-31T13:26:59.836Z,101320.53
2022-12-31T13:30:27.623Z,101326.56
2022-12-31T13:33:39.074Z,101329.41
2022-12-31T13:36:49.167Z,101315.47
2022-12-31T13:39:59.671Z,101318.75
2022-12-31T13:43:09.489Z,101315.09
2022-12-31T13:46:23.234Z,101309.91
2022-12-31T13:49:46.397Z,101303.25
2022-12-31T13:53:09.006Z,101296.38
2022-12-31T13:56:20.668Z,101315.41
2022-12-31T13:59:29.581Z,101327.44
2022-12-31T14:02:44.698Z,101338.81
2022-12-31T14:06:00.873Z,101339.03
2022-12-31T14:09:07.655Z,101335.06
2022-12-31T14:12:17.195Z,101321.22
2022-12-31T14:15:46.923Z,101338.16
2022-12-31T14:18:54.898Z,101336.69
2022-12-31T14:22:17.119Z,101335.00
2022-12-31T14:25:27.045Z,101333.38
2022-12-31T14:28:43.057Z,101323.78
2022-12-31T14:32:05.148Z,101330.66
2022-12-31T14:35:18.345Z,101336.88
2022-12-31T14:38:37.663Z,101347.00
2022-12-31T14:42:18.689Z,101339.47
2022-12-31T14:45:34.671Z,101334.63
2022-12-31T14:48:55.810Z,101328.78
2022-12-31T14:52:10.770Z,101325.94
2022-12-31T14:55:16.462Z,101327.50
2022-12-31T14:58:42.974Z,101337.47
2022-12-31T15:01:51.463Z,101331.13
2022-12-31T15:05:14.991Z,101328.16
2022-12-31T15:08:32.734Z,101335.34
2022-12-31T15:11:51.615Z,101324.66
2022-12-31T15:14:59.768Z,101320.47
2022-12-31T15:18:29.548Z,101320.34
2022-12-31T15:21:38.458Z,101333.06
2022-12-31T15:24:48.285Z,101335.09
2022-12-31T15:27:58.964Z,101349.25
2022-12-31T15:31:19.661Z,101349.84
2022-12-31T15:34:35.444Z,101346.97
2022-12-31T15:37:44.098Z,101347.81
2022-12-31T15:40:52.838Z,101335.47
2022-12-31T15:44:16.931Z,101348.66
2022-12-31T15:47:30.150Z,101370.56
2022-12-31T15:50:39.007Z,101383.91
2022-12-31T15:53:54.021Z,101378.75
2022-12-31T15:57:04.228Z,101364.81
2022-12-31T16:00:18.299Z,101351.31
2022-12-31T16:03:25.408Z,101350.47
2022-12-31T16:06:35.376Z,101348.87
2022-12-31T16:09:42.020Z,101341.91
2022-12-31T16:12:49.378Z,101350.56
2022-12-31T16:16:04.978Z,101364.50
2022-12-31T16:19:27.288Z,101353.69
2022-12-31T16:22:39.128Z,101358.22
2022-12-31T16:25:47.181Z,101358.22
2022-12-31T16:28:53.636Z,101351.03
2022-12-31T16:32:00.747Z,101351.50
2022-12-31T16:35:23.940Z,101341.47
2022-12-31T16:38:36.195Z,101333.44
2022-12-31T16:41:43.832Z,101341.81
2022-12-31T16:44:52.768Z,101346.84
2022-12-31T16:48:04.994Z,101361.69
2022-12-31T16:51:17.166Z,101366.38
2022-12-31T16:54:35.323Z,101378.94
2022-12-31T16:57:42.290Z,101373.19
2022-12-31T17:00:52.944Z,101369.19
2022-12-31T17:04:05.521Z,101358.50
2022-12-31T17:07:30.226Z,101351.28
2022-12-31T17:10:37.941Z,101357.97
2022-12-31T17:13:55.002Z,101374.62
2022-12-31T17:17:07.722Z,101370.06
2022-12-31T17:20:22.883Z,101371.38
2022-12-31T17:23:33.326Z,101360.13
2022-12-31T17:26:44.007Z,101360.47
2022-12-31T17:29:52.384Z,101373.44
2022-12-31T17:33:03.673Z,101383.84
2022-12-31T17:36:23.386Z,101391.03
2022-12-31T17:39:45.617Z,101389.34
2022-12-31T17:42:54.766Z,101396.75
2022-12-31T17:46:00.647Z,101398.59
2022-12-31T17:49:06.478Z,101392.72
2022-12-31T17:52:16.878Z,101386.28
2022-12-31T17:55:24.275Z,101388.31
2022-12-31T17:58:34.147Z,101394.56
2022-12-31T18:01:43.306Z,101405.34
2022-12-31T18:04:51.070Z,101391.12
2022-12-31T18:07:58.354Z,101390.44
2022-12-31T18:11:17.408Z,101381.44
2022-12-31T18:14:23.850Z,101377.69
2022-12-31T18:17:32.226Z,101369.72
2022-12-31T18:20:42.382Z,101373.63
2022-12-31T18:23:49.414Z,101384.72
2022-12-31T18:26:56.680Z,101393.34
2022-12-31T18:30:06.263Z,101397.25
2022-12-31T18:33:15.634Z,101397.56
2022-12-31T18:36:23.279Z,101402.59
2022-12-31T18:39:28.934Z,101403.03
2022-12-31T18:42:37.503Z,101402.59
2022-12-31T18:45:45.392Z,101407.34
2022-12-31T18:48:55.795Z,101413.56
2022-12-31T18:52:05.750Z,101424.09
2022-12-31T18:55:33.797Z,101428.19
2022-12-31T18:58:39.631Z,101427.75
2022-12-31T19:01:47.988Z,101425.53
2022-12-31T19:04:54.999Z,101436.87
2022-12-31T19:08:01.208Z,101421.41
2022-12-31T19:11:14.699Z,101427.84
2022-12-31T19:14:23.487Z,101431.06
2022-12-31T19:17:29.943Z,101425.81
2022-12-31T19:20:37.584Z,101422.25
2022-12-31T19:23:45.807Z,101414.88
2022-12-31T19:26:56.098Z,101419.84
2022-12-31T19:30:05.537Z,101419.94
2022-12-31T19:33:14.592Z,101411.84
2022-12-31T19:36:21.389Z,101414.38
2022-12-31T19:39:30.849Z,101424.69
2022-12-31T19:42:39.498Z,101431.97
2022-12-31T19:45:48.787Z,101430.78
2022-12-31T19:48:57.958Z,101425.44
2022-12-31T19:52:11.046Z,101424.72
2022-12-31T19:55:20.840Z,101431.53
2022-12-31T19:58:28.318Z,101407.50
2022-12-31T20:01:34.525Z,101396.63
2022-12-31T20:04:42.158Z,101385.41
2022-12-31T20:07:48.008Z,101389.59
2022-12-31T20:10:59.627Z,101392.31
2022-12-31T20:14:07.370Z,101383.28
2022-12-31T20:17:13.748Z,101386.34
2022-12-31T20:20:21.963Z,101398.09
2022-12-31T20:23:28.044Z,101406.31
2022-12-31T20:26:37.008Z,101389.06
2022-12-31T20:29:46.054Z,101394.62
2022-12-31T20:32:56.019Z,101396.81
2022-12-31T20:36:05.733Z,101396.94
2022-12-31T20:39:11.260Z,101411.78
2022-12-31T20:42:17.372Z,101403.44
2022-12-31T20:45:20.408Z,101406.06
2022-12-31T20:48:25.070Z,101409.31
2022-12-31T20:51:29.677Z,101415.72
2022-12-31T20:54:34.016Z,101411.09
2022-12-31T20:57:38.117Z,101416.44
2022-12-31T21:00:42.901Z,101397.88
2022-12-31T21:04:06.954Z,101401.75
2022-12-31T21:07:18.137Z,101406.34
2022-12-31T21:10:26.118Z,101397.09
2022-12-31T21:13:35.026Z,101399.91
2022-12-31T21:16:43.071Z,101402.84
2022-12-31T21:19:51.214Z,101408.69
2022-12-31T21:22:57.791Z,101402.69
2022-12-31T21:26:05.743Z,101407.50
2022-12-31T21:29:12.557Z,101417.50
2022-12-31T21:32:19.360Z,101434.75
2022-12-31T21:35:45.635Z,101428.69
2022-12-31T21:38:57.668Z,101439.06
2022-12-31T21:42:03.556Z,101439.91
2022-12-31T21:45:12.050Z,101442.06
2022-12-31T21:48:23.972Z,101450.16
2022-12-31T21:51:32.805Z,101447.41
2022-12-31T21:54:58.799Z,101448.19
2022-12-31T22:01:50.574Z,101450.28
2022-12-31T22:05:02.229Z,101442.06
2022-12-31T22:08:09.248Z,101442.69
2022-12-31T22:11:20.470Z,101458.06
2022-12-31T22:14:26.334Z,101449.25
2022-12-31T22:17:36.714Z,101451.47
2022-12-31T22:20:46.342Z,101458.47
2022-12-31T22:23:55.434Z,101443.59
2022-12-31T22:27:27.822Z,101454.94
2022-12-31T22:30:26.290Z,101454.25
2022-12-31T22:33:30.784Z,101456.53
2022-12-31T22:36:35.600Z,101451.28
2022-12-31T22:39:44.004Z,101445.03
2022-12-31T22:42:53.503Z,101449.84
2022-12-31T22:46:09.622Z,101437.19
2022-12-31T22:49:19.263Z,101428.97
2022-12-31T22:52:25.977Z,101426.56
2022-12-31T22:55:35.473Z,101419.81
2022-12-31T22:58:43.443Z,101426.16
2022-12-31T23:01:51.315Z,101420.22
2022-12-31T23:05:16.052Z,101429.38
2022-12-31T23:08:24.950Z,101434.63
2022-12-31T23:11:34.185Z,101430.78
2022-12-31T23:15:01.089Z,101413.06
2022-12-31T23:18:26.434Z,101412.34
2022-12-31T23:21:53.509Z,101410.81
2022-12-31T23:25:00.122Z,101402.03
2022-12-31T23:28:10.795Z,101410.91
2022-12-31T23:31:17.374Z,101418.03
2022-12-31T23:34:24.763Z,101412.44
2022-12-31T23:37:30.379Z,101415.25
2022-12-31T23:40:37.995Z,101421.59
2022-12-31T23:43:46.559Z,101423.50
2022-12-31T23:46:54.565Z,101430.31
2022-12-31T23:50:03.210Z,101431.44
2022-12-31T23:53:11.219Z,101435.19
2022-12-31T23:56:23.264Z,101433.78
2022-12-31T23:59:31.060Z,101430.31
